createdAt,value
2019-01-06T00:01:32.244Z,0.17
2019-01-06T00:04:11.541Z,0.16
2019-01-06T00:06:58.169Z,0.19
2019-01-06T00:09:36.901Z,0.17
2019-01-06T00:12:23.502Z,0.03
2019-01-06T00:15:09.853Z,-0.04
2019-01-06T00:17:39.916Z,-0.08
2019-01-06T00:20:25.011Z,-0.12
2019-01-06T00:22:55.076Z,-0.18
2019-01-06T00:25:34.144Z,-0.18
2019-01-06T00:28:04.214Z,-0.21
2019-01-06T00:30:40.134Z,-0.23
2019-01-06T00:33:24.902Z,-0.25
2019-01-06T00:36:03.889Z,-0.19
2019-01-06T00:38:52.286Z,-0.18
2019-01-06T00:41:27.825Z,-0.22
2019-01-06T00:44:00.374Z,-0.27
2019-01-06T00:46:36.378Z,-0.33
2019-01-06T00:49:06.441Z,-0.38
2019-01-06T00:51:52.670Z,-0.42
2019-01-06T00:54:22.732Z,-0.40
2019-01-06T00:56:52.813Z,-0.40
2019-01-06T00:59:37.931Z,-0.41
2019-01-06T01:02:24.375Z,-0.51
2019-01-06T01:05:03.353Z,-0.53
2019-01-06T01:07:33.443Z,-0.58
2019-01-06T01:10:06.238Z,-0.64
2019-01-06T01:12:39.031Z,-0.74
2019-01-06T01:15:27.647Z,-0.80
2019-01-06T01:18:16.137Z,-0.88
2019-01-06T01:20:46.200Z,-0.94
2019-01-06T01:23:32.741Z,-0.95
2019-01-06T01:26:18.625Z,-0.88
2019-01-06T01:29:04.891Z,-0.83
2019-01-06T01:31:50.913Z,-0.82
2019-01-06T01:34:38.733Z,-0.85
2019-01-06T01:37:17.802Z,-0.84
2019-01-06T01:39:59.862Z,-1.01
2019-01-06T01:42:29.927Z,-1.14
2019-01-06T01:45:08.952Z,-1.24
2019-01-06T01:47:39.012Z,-1.30
2019-01-06T01:50:21.000Z,-1.31
2019-01-06T01:52:53.789Z,-1.27
2019-01-06T01:55:23.885Z,-1.22
2019-01-06T01:58:03.070Z,-1.17
2019-01-06T02:00:50.986Z,-1.19
2019-01-06T02:03:33.101Z,-1.15
2019-01-06T02:06:06.162Z,-1.16
2019-01-06T02:08:52.666Z,-1.18
2019-01-06T02:11:28.650Z,-1.25
2019-01-06T02:14:15.063Z,-1.38
2019-01-06T02:17:00.165Z,-1.43
2019-01-06T02:19:30.250Z,-1.48
2019-01-06T02:22:05.798Z,-1.49
2019-01-06T02:24:38.584Z,-1.50
2019-01-06T02:27:24.585Z,-1.51
2019-01-06T02:30:03.646Z,-1.50
2019-01-06T02:32:45.821Z,-1.51
2019-01-06T02:35:21.980Z,-1.55
2019-01-06T02:38:07.376Z,-1.55
2019-01-06T02:40:43.513Z,-1.57
2019-01-06T02:43:16.580Z,-1.58
2019-01-06T02:46:03.208Z,-1.62
2019-01-06T02:48:48.392Z,-1.67
2019-01-06T02:51:34.640Z,-1.69
2019-01-06T02:54:20.794Z,-1.72
2019-01-06T02:56:59.692Z,-1.76
2019-01-06T02:59:35.454Z,-1.77
2019-01-06T03:02:05.557Z,-1.80
2019-01-06T03:04:35.694Z,-1.86
2019-01-06T03:07:08.214Z,-1.88
2019-01-06T03:09:40.997Z,-1.89
2019-01-06T03:12:11.091Z,-1.91
2019-01-06T03:14:41.151Z,-1.88
2019-01-06T03:17:11.248Z,-1.87
2019-01-06T03:19:57.506Z,-1.86
2019-01-06T03:22:30.009Z,-1.86
2019-01-06T03:25:16.096Z,-1.86
2019-01-06T03:27:49.219Z,-1.92
2019-01-06T03:30:25.268Z,-1.93
2019-01-06T03:32:58.525Z,-1.90
2019-01-06T03:35:28.591Z,-1.85
2019-01-06T03:38:14.599Z,-1.88
2019-01-06T03:41:02.654Z,-1.90
2019-01-06T03:43:48.540Z,-1.92
2019-01-06T03:46:35.051Z,-1.96
2019-01-06T03:49:07.679Z,-1.92
2019-01-06T03:51:37.740Z,-1.88
2019-01-06T03:54:13.586Z,-1.85
2019-01-06T03:56:59.848Z,-1.82
2019-01-06T03:59:46.206Z,-1.84
2019-01-06T04:02:16.269Z,-1.90
2019-01-06T04:04:55.187Z,-1.93
2019-01-06T04:07:41.271Z,-1.98
2019-01-06T04:10:26.469Z,-2.05
2019-01-06T04:13:02.275Z,-2.16
2019-01-06T04:15:32.364Z,-2.17
2019-01-06T04:18:02.423Z,-2.21
2019-01-06T04:20:49.180Z,-2.21
2019-01-06T04:23:25.270Z,-2.22
2019-01-06T04:25:58.036Z,-2.21
2019-01-06T04:28:40.016Z,-2.17
2019-01-06T04:31:12.619Z,-2.18
2019-01-06T04:33:48.496Z,-2.17
2019-01-06T04:36:24.028Z,-2.16
2019-01-06T04:39:10.212Z,-2.24
2019-01-06T04:41:43.221Z,-2.27
2019-01-06T04:44:15.762Z,-2.27
2019-01-06T04:47:01.766Z,-2.27
2019-01-06T04:49:46.570Z,-2.29
2019-01-06T04:52:25.558Z,-2.22
2019-01-06T04:54:55.613Z,-2.16
2019-01-06T04:57:28.425Z,-2.15
2019-01-06T05:00:14.451Z,-2.17
2019-01-06T05:03:02.931Z,-2.20
2019-01-06T05:05:38.794Z,-2.16
2019-01-06T05:08:08.883Z,-2.15
2019-01-06T05:10:38.947Z,-2.14
2019-01-06T05:13:09.031Z,-2.07
2019-01-06T05:15:39.098Z,-2.02
2019-01-06T05:18:25.053Z,-2.01
2019-01-06T05:21:03.751Z,-1.95
2019-01-06T05:23:48.947Z,-1.91
2019-01-06T05:26:19.007Z,-1.84
2019-01-06T05:28:54.957Z,-1.79
2019-01-06T05:31:30.739Z,-1.77
2019-01-06T05:34:17.201Z,-1.77
2019-01-06T05:36:47.275Z,-1.75
2019-01-06T05:39:17.371Z,-1.74
2019-01-06T05:41:59.463Z,-1.71
2019-01-06T05:44:31.978Z,-1.69
2019-01-06T05:47:10.749Z,-1.67
2019-01-06T05:49:43.702Z,-1.60
2019-01-06T05:52:16.410Z,-1.57
2019-01-06T05:55:02.849Z,-1.51
2019-01-06T05:57:41.387Z,-1.44
2019-01-06T06:00:17.153Z,-1.40
2019-01-06T06:02:52.921Z,-1.41
2019-01-06T06:05:39.122Z,-1.37
2019-01-06T06:08:12.054Z,-1.35
2019-01-06T06:10:58.439Z,-1.33
2019-01-06T06:13:28.517Z,-1.26
2019-01-06T06:16:15.175Z,-1.19
2019-01-06T06:19:01.192Z,-1.12
2019-01-06T06:21:49.587Z,-1.08
2019-01-06T06:24:22.403Z,-1.05
2019-01-06T06:27:04.772Z,-1.03
2019-01-06T06:29:51.035Z,-1.02
2019-01-06T06:32:37.524Z,-0.99
2019-01-06T06:35:07.626Z,-0.98
2019-01-06T06:37:37.694Z,-0.94
2019-01-06T06:40:10.845Z,-0.94
2019-01-06T06:42:49.977Z,-0.92
2019-01-06T06:45:35.133Z,-0.90
2019-01-06T06:48:07.779Z,-0.90
2019-01-06T06:50:37.875Z,-0.87
2019-01-06T06:53:10.635Z,-0.86
2019-01-06T06:55:56.973Z,-0.88
2019-01-06T06:58:27.046Z,-0.93
2019-01-06T07:01:19.357Z,-0.92
2019-01-06T07:04:04.306Z,-0.91
2019-01-06T07:06:50.963Z,-0.87
2019-01-06T07:09:39.443Z,-0.85
2019-01-06T07:12:24.783Z,-0.84
2019-01-06T07:15:00.598Z,-0.80
2019-01-06T07:18:05.451Z,-0.81
2019-01-06T07:20:41.330Z,-0.77
2019-01-06T07:23:27.791Z,-0.76
2019-01-06T07:26:00.942Z,-0.75
2019-01-06T07:28:46.938Z,-0.74
2019-01-06T07:31:17.019Z,-0.74
2019-01-06T07:33:49.991Z,-0.73
2019-01-06T07:36:35.316Z,-0.72
2019-01-06T07:39:21.619Z,-0.69
2019-01-06T07:42:06.591Z,-0.68
2019-01-06T07:44:39.336Z,-0.63
2019-01-06T07:47:24.477Z,-0.61
2019-01-06T07:50:00.203Z,-0.57
2019-01-06T07:52:46.528Z,-0.53
2019-01-06T07:55:31.727Z,-0.48
2019-01-06T07:58:01.825Z,-0.45
2019-01-06T08:00:31.882Z,-0.40
2019-01-06T08:03:13.809Z,-0.34
2019-01-06T08:05:43.891Z,-0.33
2019-01-06T08:08:19.687Z,-0.32
2019-01-06T08:10:49.760Z,-0.29
2019-01-06T08:13:19.857Z,-0.34
2019-01-06T08:15:55.669Z,-0.42
2019-01-06T08:18:41.934Z,-0.46
2019-01-06T08:21:28.287Z,-0.47
2019-01-06T08:24:00.845Z,-0.49
2019-01-06T08:26:36.606Z,-0.47
2019-01-06T08:29:12.423Z,-0.45
2019-01-06T08:31:45.166Z,-0.40
2019-01-06T08:34:33.089Z,-0.36
2019-01-06T08:37:03.217Z,-0.34
2019-01-06T08:39:36.322Z,-0.31
2019-01-06T08:42:22.604Z,-0.32
2019-01-06T08:45:07.738Z,-0.28
2019-01-06T08:47:40.495Z,-0.25
2019-01-06T08:50:13.585Z,-0.19
2019-01-06T08:52:43.662Z,-0.17
2019-01-06T08:55:29.759Z,-0.11
2019-01-06T08:58:16.363Z,-0.12
2019-01-06T09:01:02.564Z,-0.08
2019-01-06T09:03:47.599Z,0.03
2019-01-06T09:06:33.994Z,0.07
2019-01-06T09:09:04.057Z,0.08
2019-01-06T09:11:50.288Z,0.14
2019-01-06T09:14:36.298Z,0.14
2019-01-06T09:17:09.306Z,0.19
2019-01-06T09:19:54.069Z,0.15
2019-01-06T09:22:42.099Z,0.15
2019-01-06T09:25:27.546Z,0.16
2019-01-06T09:28:15.893Z,0.20
2019-01-06T09:31:02.055Z,0.32
2019-01-06T09:33:34.602Z,0.37
2019-01-06T09:36:20.860Z,0.44
2019-01-06T09:39:02.593Z,0.48
2019-01-06T09:41:32.677Z,0.42
2019-01-06T09:44:18.021Z,0.37
2019-01-06T09:46:48.124Z,0.36
2019-01-06T09:49:33.258Z,0.41
2019-01-06T09:52:21.820Z,0.49
2019-01-06T09:55:06.687Z,0.58
2019-01-06T09:57:42.230Z,0.60
2019-01-06T10:00:15.357Z,0.65
2019-01-06T10:02:51.009Z,0.72
2019-01-06T10:05:32.861Z,0.75
2019-01-06T10:08:20.992Z,0.76
2019-01-06T10:11:06.982Z,0.77
2019-01-06T10:13:42.655Z,0.80
2019-01-06T10:16:28.881Z,0.80
2019-01-06T10:19:07.959Z,0.71
2019-01-06T10:21:46.887Z,0.73
2019-01-06T10:24:17.038Z,0.80
2019-01-06T10:26:55.808Z,0.90
2019-01-06T10:29:40.665Z,0.94
2019-01-06T10:32:27.035Z,0.89
2019-01-06T10:34:57.118Z,0.84
2019-01-06T10:37:29.614Z,0.84
2019-01-06T10:40:05.657Z,0.86
2019-01-06T10:42:35.732Z,0.86
2019-01-06T10:45:09.078Z,0.89
2019-01-06T10:47:47.854Z,0.94
2019-01-06T10:50:29.957Z,0.95
2019-01-06T10:53:00.023Z,1.03
2019-01-06T10:55:46.307Z,1.14
2019-01-06T10:58:32.518Z,1.23
2019-01-06T11:01:18.871Z,1.20
2019-01-06T11:04:01.077Z,1.27
2019-01-06T11:06:37.451Z,1.29
2019-01-06T11:09:08.471Z,1.19
2019-01-06T11:11:38.552Z,1.16
2019-01-06T11:14:17.803Z,1.14
2019-01-06T11:16:47.865Z,1.07
2019-01-06T11:19:17.927Z,1.09
2019-01-06T11:21:48.025Z,1.13
2019-01-06T11:24:18.166Z,1.17
2019-01-06T11:26:48.294Z,1.22
2019-01-06T11:29:26.798Z,1.28
2019-01-06T11:32:02.741Z,1.32
2019-01-06T11:34:48.887Z,1.34
2019-01-06T11:37:25.207Z,1.37
2019-01-06T11:40:11.464Z,1.40
2019-01-06T11:42:59.283Z,1.40
2019-01-06T11:45:29.327Z,1.44
2019-01-06T11:48:15.688Z,1.49
2019-01-06T11:51:01.750Z,1.55
2019-01-06T11:53:47.970Z,1.59
2019-01-06T11:56:23.950Z,1.63
2019-01-06T11:58:56.828Z,1.68
2019-01-06T12:01:29.577Z,1.73
2019-01-06T12:04:05.448Z,1.80
2019-01-06T12:06:35.545Z,1.81
2019-01-06T12:09:09.729Z,1.80
2019-01-06T12:11:39.812Z,1.79
2019-01-06T12:14:25.026Z,1.81
2019-01-06T12:17:11.358Z,1.85
2019-01-06T12:19:43.924Z,1.86
2019-01-06T12:22:22.688Z,1.89
2019-01-06T12:24:52.754Z,1.93
2019-01-06T12:27:38.989Z,1.92
2019-01-06T12:30:27.165Z,1.93
2019-01-06T12:33:13.196Z,1.84
2019-01-06T12:35:58.526Z,1.84
2019-01-06T12:38:43.564Z,1.90
2019-01-06T12:41:13.635Z,1.96
2019-01-06T12:44:00.198Z,2.01
2019-01-06T12:46:30.258Z,2.03
2019-01-06T12:49:09.379Z,2.03
2019-01-06T12:51:51.352Z,2.01
2019-01-06T12:54:37.450Z,2.00
2019-01-06T12:57:13.503Z,1.99
2019-01-06T12:59:52.503Z,1.99
2019-01-06T13:02:38.686Z,2.01
2019-01-06T13:05:20.689Z,2.00
2019-01-06T13:07:53.255Z,2.01
2019-01-06T13:10:23.315Z,2.02
2019-01-06T13:13:09.910Z,2.02
2019-01-06T13:15:48.815Z,2.04
2019-01-06T13:18:28.202Z,2.02
2019-01-06T13:21:14.530Z,2.03
2019-01-06T13:24:00.621Z,1.99
2019-01-06T13:26:47.094Z,1.98
2019-01-06T13:29:33.555Z,2.00
2019-01-06T13:32:15.854Z,2.02
2019-01-06T13:34:45.945Z,2.06
2019-01-06T13:37:16.015Z,2.07
2019-01-06T13:39:49.143Z,2.10
2019-01-06T13:42:19.212Z,2.11
2019-01-06T13:44:54.900Z,2.08
2019-01-06T13:47:37.232Z,2.07
2019-01-06T13:50:09.062Z,2.02
2019-01-06T13:52:39.120Z,2.02
2019-01-06T13:55:09.274Z,2.02
2019-01-06T13:57:57.203Z,2.00
2019-01-06T14:00:33.575Z,1.99
2019-01-06T14:03:18.566Z,1.90
2019-01-06T14:05:54.615Z,1.91
2019-01-06T14:08:33.423Z,1.92
2019-01-06T14:11:03.513Z,1.93
2019-01-06T14:13:33.577Z,1.92
2019-01-06T14:16:03.672Z,1.92
2019-01-06T14:18:33.796Z,1.91
2019-01-06T14:21:20.476Z,1.93
2019-01-06T14:23:50.614Z,1.91
2019-01-06T14:26:20.717Z,1.93
2019-01-06T14:29:07.004Z,1.93
2019-01-06T14:31:39.806Z,1.90
2019-01-06T14:34:15.891Z,1.90
2019-01-06T14:36:51.718Z,1.90
2019-01-06T14:39:37.916Z,1.90
2019-01-06T14:42:08.006Z,1.91
2019-01-06T14:44:40.787Z,1.92
2019-01-06T14:47:10.881Z,1.94
2019-01-06T14:49:49.975Z,1.95
2019-01-06T14:52:34.768Z,1.91
2019-01-06T14:55:07.879Z,1.88
2019-01-06T14:57:40.654Z,1.87
2019-01-06T15:00:18.512Z,1.86
2019-01-06T15:02:51.103Z,1.86
2019-01-06T15:05:39.248Z,1.86
2019-01-06T15:08:21.091Z,1.87
2019-01-06T15:10:51.153Z,1.87
2019-01-06T15:13:30.163Z,1.87
2019-01-06T15:16:00.215Z,1.87
2019-01-06T15:18:35.817Z,1.87
2019-01-06T15:21:11.623Z,1.87
2019-01-06T15:23:41.722Z,1.87
2019-01-06T15:26:28.002Z,1.87
2019-01-06T15:29:12.826Z,1.87
2019-01-06T15:31:45.655Z,1.85
2019-01-06T15:34:21.539Z,1.85
2019-01-06T15:37:07.845Z,1.85
2019-01-06T15:39:37.917Z,1.86
2019-01-06T15:42:22.797Z,1.86
2019-01-06T15:44:55.856Z,1.85
2019-01-06T15:47:28.418Z,1.85
2019-01-06T15:49:58.492Z,1.84
2019-01-06T15:52:37.752Z,1.84
2019-01-06T15:55:24.316Z,1.84
2019-01-06T15:58:10.487Z,1.87
2019-01-06T16:00:56.530Z,1.86
2019-01-06T16:03:26.630Z,1.86
2019-01-06T16:06:12.982Z,1.87
2019-01-06T16:08:45.604Z,1.88
2019-01-06T16:11:15.686Z,1.89
2019-01-06T16:14:02.192Z,1.90
2019-01-06T16:16:47.002Z,1.90
2019-01-06T16:19:33.745Z,1.91
2019-01-06T16:22:06.983Z,1.91
2019-01-06T16:24:37.099Z,1.89
2019-01-06T16:27:19.175Z,1.91
2019-01-06T16:29:51.773Z,1.91
2019-01-06T16:32:21.841Z,1.92
2019-01-06T16:35:08.297Z,1.92
2019-01-06T16:37:54.835Z,1.93
2019-01-06T16:40:41.076Z,1.94
2019-01-06T16:43:17.330Z,1.96
2019-01-06T16:46:03.262Z,1.96
2019-01-06T16:48:51.234Z,1.97
2019-01-06T16:51:29.855Z,1.98
2019-01-06T16:54:16.030Z,1.99
2019-01-06T16:57:02.107Z,1.99
2019-01-06T16:59:50.521Z,2.00
2019-01-06T17:02:36.513Z,1.99
2019-01-06T17:05:06.979Z,2.00
2019-01-06T17:07:53.167Z,2.00
2019-01-06T17:10:34.752Z,2.00
2019-01-06T17:13:10.766Z,2.00
2019-01-06T17:15:57.229Z,1.99
2019-01-06T17:18:33.141Z,2.00
2019-01-06T17:21:21.245Z,2.01
2019-01-06T17:24:00.279Z,2.00
2019-01-06T17:26:46.866Z,2.00
2019-01-06T17:29:22.993Z,2.01
2019-01-06T17:31:58.983Z,2.00
2019-01-06T17:34:40.729Z,1.99
2019-01-06T17:37:28.846Z,1.98
2019-01-06T17:40:15.089Z,1.98
2019-01-06T17:43:01.168Z,1.99
2019-01-06T17:45:33.731Z,1.98
2019-01-06T17:48:06.932Z,1.99
2019-01-06T17:50:52.231Z,1.98
2019-01-06T17:53:34.540Z,1.99
2019-01-06T17:56:16.663Z,1.99
2019-01-06T17:59:03.229Z,1.99
2019-01-06T18:01:33.285Z,2.00
2019-01-06T18:04:03.373Z,2.02
2019-01-06T18:06:50.035Z,2.01
2019-01-06T18:09:20.099Z,2.02
2019-01-06T18:12:01.713Z,2.02
2019-01-06T18:14:31.880Z,2.03
2019-01-06T18:17:01.990Z,2.03
2019-01-06T18:19:34.768Z,2.05
2019-01-06T18:22:16.893Z,2.06
2019-01-06T18:24:49.572Z,2.06
2019-01-06T18:27:35.577Z,2.07
2019-01-06T18:30:12.679Z,2.08
2019-01-06T18:32:51.527Z,2.09
2019-01-06T18:35:30.415Z,2.09
2019-01-06T18:38:09.527Z,2.10
2019-01-06T18:40:51.601Z,2.11
2019-01-06T18:43:27.485Z,2.12
2019-01-06T18:46:09.264Z,2.13
2019-01-06T18:48:55.271Z,2.14
2019-01-06T18:51:31.137Z,2.14
2019-01-06T18:54:17.618Z,2.14
2019-01-06T18:56:53.336Z,2.14
2019-01-06T18:59:32.089Z,2.14
2019-01-06T19:02:07.964Z,2.14
2019-01-06T19:04:38.051Z,2.15
2019-01-06T19:07:08.118Z,2.15
2019-01-06T19:09:54.325Z,2.16
2019-01-06T19:12:29.980Z,2.16
2019-01-06T19:15:16.517Z,2.18
2019-01-06T19:17:52.559Z,2.20
2019-01-06T19:20:38.941Z,2.21
2019-01-06T19:23:09.014Z,2.21
2019-01-06T19:25:57.507Z,2.21
2019-01-06T19:28:43.694Z,2.23
2019-01-06T19:31:25.620Z,2.23
2019-01-06T19:34:01.665Z,2.24
2019-01-06T19:36:34.433Z,2.25
2019-01-06T19:39:04.562Z,2.25
2019-01-06T19:41:52.874Z,2.26
2019-01-06T19:44:32.139Z,2.26
2019-01-06T19:47:10.920Z,2.28
2019-01-06T19:49:48.861Z,2.28
2019-01-06T19:52:28.110Z,2.29
2019-01-06T19:54:58.170Z,2.30
2019-01-06T19:57:47.172Z,2.32
2019-01-06T20:00:33.881Z,2.33
2019-01-06T20:03:06.862Z,2.33
2019-01-06T20:05:49.044Z,2.34
2019-01-06T20:08:19.144Z,2.34
2019-01-06T20:10:51.994Z,2.36
2019-01-06T20:13:25.170Z,2.36
2019-01-06T20:15:57.942Z,2.37
2019-01-06T20:18:44.145Z,2.38
2019-01-06T20:21:16.896Z,2.38
2019-01-06T20:23:52.991Z,2.40
2019-01-06T20:26:26.182Z,2.42
2019-01-06T20:29:12.592Z,2.43
2019-01-06T20:31:45.095Z,2.44
2019-01-06T20:34:18.208Z,2.44
2019-01-06T20:36:48.329Z,2.45
2019-01-06T20:39:24.242Z,2.47
2019-01-06T20:41:58.716Z,2.48
2019-01-06T20:44:42.521Z,2.47
2019-01-06T20:47:18.329Z,2.47
2019-01-06T20:49:48.468Z,2.47
2019-01-06T20:52:41.788Z,2.47
2019-01-06T20:55:22.961Z,2.49
2019-01-06T20:57:55.461Z,2.51
2019-01-06T21:00:34.659Z,2.53
2019-01-06T21:03:20.765Z,2.55
2019-01-06T21:05:50.849Z,2.57
2019-01-06T21:08:29.816Z,2.58
2019-01-06T21:11:05.397Z,2.58
2019-01-06T21:13:37.937Z,2.59
2019-01-06T21:16:24.347Z,2.60
2019-01-06T21:19:12.779Z,2.61
2019-01-06T21:21:48.610Z,2.62
2019-01-06T21:24:18.669Z,2.62
2019-01-06T21:26:51.646Z,2.64
2019-01-06T21:29:40.143Z,2.64
2019-01-06T21:32:12.915Z,2.63
2019-01-06T21:34:59.188Z,2.65
2019-01-06T21:37:45.764Z,2.64
2019-01-06T21:40:18.831Z,2.65
2019-01-06T21:42:48.927Z,2.68
2019-01-06T21:45:31.194Z,2.69
2019-01-06T21:48:04.010Z,2.69
2019-01-06T21:50:46.006Z,2.71
2019-01-06T21:53:16.095Z,2.71
2019-01-06T21:55:48.864Z,2.73
2019-01-06T21:58:35.093Z,2.74
2019-01-06T22:01:14.044Z,2.74
2019-01-06T22:04:02.642Z,2.74
2019-01-06T22:06:35.158Z,2.80
2019-01-06T22:09:18.277Z,2.81
2019-01-06T22:12:00.727Z,2.85
2019-01-06T22:14:48.902Z,2.90
2019-01-06T22:17:22.073Z,2.95
2019-01-06T22:20:08.102Z,2.95
2019-01-06T22:22:40.887Z,2.99
2019-01-06T22:25:27.159Z,3.10
2019-01-06T22:28:15.339Z,3.27
2019-01-06T22:31:01.524Z,3.59
2019-01-06T22:33:43.521Z,4.07
2019-01-06T22:36:19.335Z,4.07
2019-01-06T22:39:01.210Z,4.35
2019-01-06T22:41:31.275Z,4.35
2019-01-06T22:44:19.568Z,4.46
2019-01-06T22:46:49.628Z,4.54
2019-01-06T22:49:19.710Z,4.56
2019-01-06T22:52:05.910Z,4.58
2019-01-06T22:54:36.189Z,4.64
2019-01-06T22:57:12.173Z,4.64
2019-01-06T22:59:58.080Z,4.65
2019-01-06T23:02:33.837Z,4.60
2019-01-06T23:05:03.930Z,4.60
2019-01-06T23:07:34.000Z,4.58
2019-01-06T23:10:04.095Z,4.62
2019-01-06T23:12:45.798Z,4.66
2019-01-06T23:15:31.843Z,4.66
2019-01-06T23:18:01.902Z,4.64
2019-01-06T23:20:34.434Z,4.64
2019-01-06T23:23:04.497Z,4.69
2019-01-06T23:25:37.196Z,4.72
2019-01-06T23:28:09.936Z,4.73
2019-01-06T23:30:52.303Z,4.73
2019-01-06T23:33:22.372Z,4.73
2019-01-06T23:35:55.139Z,4.73
2019-01-06T23:38:36.858Z,4.75
2019-01-06T23:41:09.629Z,4.76
2019-01-06T23:43:39.679Z,4.76
2019-01-06T23:46:09.774Z,4.83
2019-01-06T23:48:45.567Z,4.82
2019-01-06T23:51:24.368Z,4.82
2019-01-06T23:54:09.562Z,4.81
2019-01-06T23:56:57.687Z,4.81
2019-01-06T23:59:33.498Z,4.81
